createdAt,value
2018-07-17T00:00:18.849Z,98429.73
2018-07-17T00:02:48.033Z,98423.00
2018-07-17T00:05:17.252Z,98431.56
2018-07-17T00:07:46.464Z,98426.89
2018-07-17T00:10:15.739Z,98428.91
2018-07-17T00:12:45.024Z,98427.59
2018-07-17T00:15:14.382Z,98424.86
2018-07-17T00:17:43.448Z,98429.92
2018-07-17T00:20:12.433Z,98430.64
2018-07-17T00:22:41.537Z,98428.31
2018-07-17T00:25:10.531Z,98428.53
2018-07-17T00:27:40.511Z,98423.96
2018-07-17T00:30:09.551Z,98425.61
2018-07-17T00:32:38.564Z,98424.85
2018-07-17T00:35:07.956Z,98425.55
2018-07-17T00:37:36.919Z,98422.00
2018-07-17T00:40:06.028Z,98423.54
2018-07-17T00:42:35.073Z,98417.25
2018-07-17T00:45:04.140Z,98406.73
2018-07-17T00:47:33.158Z,98406.10
2018-07-17T00:50:02.129Z,98402.26
2018-07-17T00:52:31.148Z,98402.88
2018-07-17T00:55:00.213Z,98408.54
2018-07-17T00:57:29.350Z,98403.20
2018-07-17T00:59:58.315Z,98400.87
2018-07-17T01:02:32.444Z,98401.98
2018-07-17T01:05:06.546Z,98398.73
2018-07-17T01:07:40.725Z,98390.02
2018-07-17T01:10:14.640Z,98400.05
2018-07-17T01:12:42.646Z,98404.92
2018-07-17T01:15:23.363Z,98409.36
2018-07-17T01:17:52.455Z,98402.68
2018-07-17T01:20:21.464Z,98404.27
2018-07-17T01:22:50.452Z,98407.78
2018-07-17T01:25:19.431Z,98410.32
2018-07-17T01:27:48.407Z,98408.15
2018-07-17T01:30:17.478Z,98399.63
2018-07-17T01:32:46.488Z,98404.76
2018-07-17T01:35:15.532Z,98402.22
2018-07-17T01:37:44.562Z,98401.98
2018-07-17T01:40:13.617Z,98392.72
2018-07-17T01:42:42.645Z,98387.13
2018-07-17T01:45:11.623Z,98385.91
2018-07-17T01:47:40.593Z,98394.58
2018-07-17T01:50:09.629Z,98390.46
2018-07-17T01:52:38.704Z,98398.83
2018-07-17T01:55:07.664Z,98402.43
2018-07-17T01:57:36.624Z,98403.74
2018-07-17T02:00:06.180Z,98404.13
2018-07-17T02:02:35.191Z,98408.79
2018-07-17T02:05:04.273Z,98405.80
2018-07-17T02:07:33.239Z,98397.09
2018-07-17T02:10:02.349Z,98396.55
2018-07-17T02:12:31.676Z,98387.16
2018-07-17T02:15:00.931Z,98374.61
2018-07-17T02:17:30.171Z,98373.77
2018-07-17T02:19:59.185Z,98373.77
2018-07-17T02:22:28.232Z,98375.52
2018-07-17T02:24:57.248Z,98363.45
2018-07-17T02:27:26.364Z,98371.73
2018-07-17T02:29:55.380Z,98366.88
2018-07-17T02:32:24.352Z,98365.39
2018-07-17T02:34:53.332Z,98363.99
2018-07-17T02:37:22.349Z,98363.80
2018-07-17T02:39:51.455Z,98363.60
2018-07-17T02:42:20.481Z,98363.48
2018-07-17T02:44:49.880Z,98356.09
2018-07-17T02:47:18.849Z,98357.64
2018-07-17T02:49:47.925Z,98359.88
2018-07-17T02:52:16.901Z,98357.54
2018-07-17T02:54:45.970Z,98361.16
2018-07-17T02:57:14.966Z,98354.97
2018-07-17T02:59:43.936Z,98353.70
2018-07-17T03:02:12.957Z,98358.66
2018-07-17T03:04:41.916Z,98358.77
2018-07-17T03:07:11.158Z,98360.02
2018-07-17T03:09:40.115Z,98357.05
2018-07-17T03:12:09.254Z,98356.56
2018-07-17T03:14:38.601Z,98354.42
2018-07-17T03:17:07.969Z,98355.55
2018-07-17T03:19:37.400Z,98357.59
2018-07-17T03:22:06.601Z,98356.64
2018-07-17T03:24:35.809Z,98360.39
2018-07-17T03:27:05.361Z,98355.36
2018-07-17T03:29:34.631Z,98356.48
2018-07-17T03:32:04.024Z,98353.48
2018-07-17T03:34:32.988Z,98357.06
2018-07-17T03:37:02.032Z,98354.45
2018-07-17T03:39:30.992Z,98350.62
2018-07-17T03:42:00.053Z,98345.69
2018-07-17T03:44:29.051Z,98351.95
2018-07-17T03:46:58.044Z,98354.50
2018-07-17T03:49:27.003Z,98350.36
2018-07-17T03:51:56.036Z,98356.05
2018-07-17T03:54:25.095Z,98356.95
2018-07-17T03:56:54.076Z,98351.91
2018-07-17T03:59:23.048Z,98363.96
2018-07-17T04:01:52.056Z,98351.37
2018-07-17T04:04:21.065Z,98352.69
2018-07-17T04:06:50.147Z,98353.43
2018-07-17T04:09:19.185Z,98358.22
2018-07-17T04:11:48.217Z,98345.86
2018-07-17T04:14:17.180Z,98341.83
2018-07-17T04:17:00.409Z,98349.73
2018-07-17T04:19:29.455Z,98353.17
2018-07-17T04:21:58.525Z,98346.52
2018-07-17T04:24:27.499Z,98345.09
2018-07-17T04:26:56.472Z,98340.53
2018-07-17T04:29:25.541Z,98340.20
2018-07-17T04:31:54.540Z,98346.50
2018-07-17T04:34:23.648Z,98339.21
2018-07-17T04:36:52.597Z,98341.75
2018-07-17T04:39:21.649Z,98339.30
2018-07-17T04:41:50.631Z,98340.23
2018-07-17T04:44:19.647Z,98344.39
2018-07-17T04:46:48.631Z,98347.52
2018-07-17T04:49:17.589Z,98342.05
2018-07-17T04:51:46.664Z,98333.94
2018-07-17T04:54:15.690Z,98331.59
2018-07-17T04:56:44.980Z,98335.05
2018-07-17T04:59:14.044Z,98321.77
2018-07-17T05:01:43.167Z,98327.73
2018-07-17T05:04:12.197Z,98327.59
2018-07-17T05:06:41.277Z,98321.66
2018-07-17T05:09:10.839Z,98317.47
2018-07-17T05:11:40.104Z,98316.21
2018-07-17T05:14:09.085Z,98312.84
2018-07-17T05:16:38.087Z,98323.23
2018-07-17T05:19:07.120Z,98320.38
2018-07-17T05:21:36.124Z,98324.18
2018-07-17T05:24:05.116Z,98320.44
2018-07-17T05:26:34.339Z,98314.86
2018-07-17T05:29:03.497Z,98314.56
2018-07-17T05:31:32.676Z,98315.45
2018-07-17T05:34:01.943Z,98313.16
2018-07-17T05:36:31.020Z,98316.92
2018-07-17T05:39:00.105Z,98309.30
2018-07-17T05:41:29.495Z,98311.70
2018-07-17T05:43:58.593Z,98313.88
2018-07-17T05:46:27.711Z,98324.67
2018-07-17T05:48:56.739Z,98316.90
2018-07-17T05:51:25.758Z,98310.55
2018-07-17T05:53:54.894Z,98306.48
2018-07-17T05:56:24.008Z,98305.16
2018-07-17T05:58:53.032Z,98296.63
2018-07-17T06:01:22.180Z,98294.14
2018-07-17T06:03:51.291Z,98288.88
2018-07-17T06:06:20.384Z,98287.48
2018-07-17T06:08:49.406Z,98285.92
2018-07-17T06:11:18.427Z,98282.55
2018-07-17T06:13:47.461Z,98285.00
2018-07-17T06:16:16.564Z,98284.81
2018-07-17T06:18:45.577Z,98284.82
2018-07-17T06:21:14.549Z,98275.25
2018-07-17T06:23:43.587Z,98277.38
2018-07-17T06:26:12.576Z,98277.27
2018-07-17T06:28:41.617Z,98276.09
2018-07-17T06:31:10.596Z,98283.90
2018-07-17T06:33:39.561Z,98277.08
2018-07-17T06:36:09.432Z,98276.87
2018-07-17T06:38:38.453Z,98276.59
2018-07-17T06:41:07.622Z,98272.26
2018-07-17T06:43:36.580Z,98268.16
2018-07-17T06:46:05.880Z,98270.51
2018-07-17T06:48:34.898Z,98275.90
2018-07-17T06:51:03.920Z,98268.63
2018-07-17T06:53:32.938Z,98267.09
2018-07-17T06:56:01.967Z,98261.89
2018-07-17T06:58:31.064Z,98262.61
2018-07-17T07:01:00.052Z,98262.52
2018-07-17T07:03:29.020Z,98258.36
2018-07-17T07:05:58.020Z,98248.59
2018-07-17T07:08:27.003Z,98239.70
2018-07-17T07:10:56.026Z,98231.04
2018-07-17T07:13:25.060Z,98236.55
2018-07-17T07:15:54.121Z,98235.29
2018-07-17T07:18:23.141Z,98234.00
2018-07-17T07:20:52.132Z,98235.63
2018-07-17T07:23:21.199Z,98235.89
2018-07-17T07:25:50.261Z,98235.36
2018-07-17T07:28:19.262Z,98233.22
2018-07-17T07:30:48.413Z,98234.83
2018-07-17T07:33:17.569Z,98226.16
2018-07-17T07:35:46.661Z,98228.78
2018-07-17T07:38:15.697Z,98231.23
2018-07-17T07:40:44.724Z,98226.70
2018-07-17T07:43:13.672Z,98229.63
2018-07-17T07:45:42.623Z,98225.86
2018-07-17T07:48:11.604Z,98224.64
2018-07-17T07:50:40.572Z,98227.45
2018-07-17T07:53:09.604Z,98231.92
2018-07-17T07:55:38.642Z,98231.77
2018-07-17T07:58:07.867Z,98230.31
2018-07-17T08:00:36.847Z,98219.71
2018-07-17T08:03:05.934Z,98224.52
2018-07-17T08:05:34.945Z,98223.64
2018-07-17T08:08:03.959Z,98225.05
2018-07-17T08:10:33.036Z,98235.08
2018-07-17T08:13:01.996Z,98232.08
2018-07-17T08:15:31.092Z,98228.20
2018-07-17T08:18:00.148Z,98228.02
2018-07-17T08:20:29.107Z,98230.23
2018-07-17T08:22:58.153Z,98227.95
2018-07-17T08:25:27.206Z,98217.63
2018-07-17T08:27:56.182Z,98218.74
2018-07-17T08:30:25.732Z,98205.31
2018-07-17T08:32:54.844Z,98204.52
2018-07-17T08:35:23.903Z,98203.38
2018-07-17T08:37:52.871Z,98190.50
2018-07-17T08:40:21.928Z,98194.03
2018-07-17T08:42:50.928Z,98194.28
2018-07-17T08:45:19.936Z,98192.09
2018-07-17T08:47:48.948Z,98194.87
2018-07-17T08:50:18.038Z,98206.62
2018-07-17T08:52:47.008Z,98198.38
2018-07-17T08:55:15.968Z,98197.52
2018-07-17T08:57:44.944Z,98205.22
2018-07-17T09:00:14.323Z,98204.11
2018-07-17T09:02:43.385Z,98205.25
2018-07-17T09:05:12.415Z,98207.47
2018-07-17T09:07:41.520Z,98198.45
2018-07-17T09:10:10.731Z,98202.76
2018-07-17T09:12:39.756Z,98203.31
2018-07-17T09:15:08.780Z,98199.58
2018-07-17T09:17:37.813Z,98206.88
2018-07-17T09:20:07.001Z,98194.13
2018-07-17T09:22:36.110Z,98191.67
2018-07-17T09:25:05.441Z,98183.77
2018-07-17T09:27:34.407Z,98194.21
2018-07-17T09:30:03.461Z,98186.17
2018-07-17T09:32:32.432Z,98181.58
2018-07-17T09:35:01.456Z,98182.67
2018-07-17T09:37:30.741Z,98185.20
2018-07-17T09:39:59.717Z,98188.95
2018-07-17T09:42:28.817Z,98191.53
2018-07-17T09:44:57.798Z,98193.88
2018-07-17T09:47:26.945Z,98190.02
2018-07-17T09:49:55.912Z,98178.16
2018-07-17T09:52:24.942Z,98175.12
2018-07-17T09:54:53.924Z,98175.48
2018-07-17T09:57:22.894Z,98178.59
2018-07-17T09:59:51.932Z,98174.96
2018-07-17T10:02:25.985Z,98177.88
2018-07-17T10:04:55.030Z,98175.36
2018-07-17T10:07:24.100Z,98170.97
2018-07-17T10:09:53.078Z,98164.66
2018-07-17T10:12:22.454Z,98170.94
2018-07-17T10:14:51.684Z,98165.72
2018-07-17T10:17:20.684Z,98164.44
2018-07-17T10:19:53.470Z,98163.66
2018-07-17T10:22:22.603Z,98156.17
2018-07-17T10:24:51.673Z,98152.38
2018-07-17T10:27:20.765Z,98159.64
2018-07-17T10:29:49.816Z,98153.62
2018-07-17T10:32:18.786Z,98152.77
2018-07-17T10:34:47.841Z,98147.89
2018-07-17T10:37:16.880Z,98147.79
2018-07-17T10:39:46.084Z,98146.14
2018-07-17T10:42:15.164Z,98142.96
2018-07-17T10:44:44.129Z,98142.77
2018-07-17T10:47:13.227Z,98143.77
2018-07-17T10:49:42.204Z,98138.68
2018-07-17T10:52:11.238Z,98143.22
2018-07-17T10:54:40.271Z,98139.25
2018-07-17T10:57:09.364Z,98135.01
2018-07-17T10:59:38.420Z,98140.70
2018-07-17T11:02:07.521Z,98147.75
2018-07-17T11:04:36.569Z,98149.11
2018-07-17T11:07:05.668Z,98151.48
2018-07-17T11:09:34.635Z,98160.86
2018-07-17T11:12:03.761Z,98169.23
2018-07-17T11:14:32.844Z,98162.59
2018-07-17T11:17:01.838Z,98171.00
2018-07-17T11:19:30.871Z,98177.73
2018-07-17T11:21:59.857Z,98173.72
2018-07-17T11:24:28.832Z,98174.60
2018-07-17T11:26:57.864Z,98171.94
2018-07-17T11:29:26.832Z,98171.70
2018-07-17T11:31:56.027Z,98168.75
2018-07-17T11:34:25.145Z,98170.33
2018-07-17T11:36:54.192Z,98163.89
2018-07-17T11:39:23.276Z,98159.08
2018-07-17T11:41:52.432Z,98156.66
2018-07-17T11:44:21.407Z,98155.03
2018-07-17T11:46:50.365Z,98151.02
2018-07-17T11:49:19.509Z,98157.45
2018-07-17T11:51:48.965Z,98156.13
2018-07-17T11:54:17.951Z,98156.31
2018-07-17T11:56:46.928Z,98155.48
2018-07-17T11:59:15.930Z,98156.02
2018-07-17T12:01:44.921Z,98160.33
2018-07-17T12:04:14.278Z,98155.55
2018-07-17T12:06:43.432Z,98143.23
2018-07-17T12:09:12.405Z,98140.34
2018-07-17T12:11:41.636Z,98137.86
2018-07-17T12:14:10.623Z,98142.41
2018-07-17T12:16:39.592Z,98143.19
2018-07-17T12:19:08.688Z,98139.98
2018-07-17T12:21:37.651Z,98136.53
2018-07-17T12:24:06.760Z,98144.22
2018-07-17T12:26:35.729Z,98152.37
2018-07-17T12:29:04.845Z,98180.44
2018-07-17T12:31:33.824Z,98183.45
2018-07-17T12:34:02.848Z,98185.09
2018-07-17T12:36:31.860Z,98178.69
2018-07-17T12:39:00.823Z,98178.60
2018-07-17T12:41:30.000Z,98182.56
2018-07-17T12:43:59.245Z,98178.51
2018-07-17T12:46:28.226Z,98174.35
2018-07-17T12:48:57.416Z,98177.81
2018-07-17T12:51:26.711Z,98177.77
2018-07-17T12:53:56.168Z,98177.20
2018-07-17T12:56:25.566Z,98169.92
2018-07-17T12:58:54.589Z,98168.17
2018-07-17T13:01:23.616Z,98163.30
2018-07-17T13:03:52.687Z,98171.45
2018-07-17T13:06:21.683Z,98169.66
2018-07-17T13:08:50.655Z,98170.59
2018-07-17T13:11:19.780Z,98161.22
2018-07-17T13:13:48.772Z,98155.62
2018-07-17T13:16:17.774Z,98163.10
2018-07-17T13:18:46.873Z,98150.09
2018-07-17T13:21:15.880Z,98133.84
2018-07-17T13:23:44.933Z,98151.00
2018-07-17T13:26:14.017Z,98149.16
2018-07-17T13:28:43.272Z,98143.58
2018-07-17T13:31:12.587Z,98141.17
2018-07-17T13:33:41.656Z,98145.71
2018-07-17T13:36:11.378Z,98143.55
2018-07-17T13:38:40.378Z,98134.64
2018-07-17T13:41:09.356Z,98141.05
2018-07-17T13:43:38.447Z,98128.84
2018-07-17T13:46:07.592Z,98123.28
2018-07-17T13:48:36.619Z,98118.77
2018-07-17T13:51:05.668Z,98118.76
2018-07-17T13:53:34.730Z,98119.27
2018-07-17T13:56:03.804Z,98112.27
2018-07-17T13:58:32.785Z,98108.23
2018-07-17T14:01:01.853Z,98109.09
2018-07-17T14:03:30.961Z,98100.80
2018-07-17T14:05:59.956Z,98098.41
2018-07-17T14:08:28.969Z,98099.70
2018-07-17T14:10:57.949Z,98096.98
2018-07-17T14:13:27.129Z,98096.73
2018-07-17T14:15:56.388Z,98090.31
2018-07-17T14:18:25.428Z,98086.57
2018-07-17T14:20:54.912Z,98085.31
2018-07-17T14:23:24.048Z,98092.27
2018-07-17T14:25:53.295Z,98086.12
2018-07-17T14:28:22.332Z,98086.91
2018-07-17T14:30:51.438Z,98079.95
2018-07-17T14:33:20.578Z,98073.81
2018-07-17T14:35:49.610Z,98076.45
2018-07-17T14:38:18.732Z,98068.69
2018-07-17T14:40:47.733Z,98070.30
2018-07-17T14:43:16.764Z,98067.06
2018-07-17T14:45:45.831Z,98061.44
2018-07-17T14:48:14.884Z,98063.28
2018-07-17T14:50:43.996Z,98062.20
2018-07-17T14:53:13.000Z,98064.53
2018-07-17T14:55:42.092Z,98080.20
2018-07-17T14:58:11.157Z,98082.48
2018-07-17T15:00:40.217Z,98080.82
2018-07-17T15:03:09.411Z,98080.67
2018-07-17T15:05:38.394Z,98081.36
2018-07-17T15:08:07.486Z,98094.95
2018-07-17T15:10:36.612Z,98097.53
2018-07-17T15:13:05.644Z,98106.00
2018-07-17T15:15:34.724Z,98080.17
2018-07-17T15:18:04.089Z,98060.15
2018-07-17T15:20:33.080Z,98064.39
2018-07-17T15:23:02.105Z,98065.88
2018-07-17T15:25:31.524Z,98069.92
2018-07-17T15:28:00.830Z,98065.28
2018-07-17T15:30:30.017Z,98063.92
2018-07-17T15:32:59.402Z,98063.61
2018-07-17T15:35:28.816Z,98070.64
2018-07-17T15:37:58.153Z,98069.20
2018-07-17T15:40:27.612Z,98069.03
2018-07-17T15:42:57.049Z,98065.59
2018-07-17T15:45:26.141Z,98064.00
2018-07-17T15:47:55.191Z,98060.83
2018-07-17T15:50:24.248Z,98066.89
2018-07-17T15:52:53.316Z,98063.86
2018-07-17T15:55:22.402Z,98066.31
2018-07-17T15:57:51.411Z,98063.36
2018-07-17T16:00:20.525Z,98066.62
2018-07-17T16:02:49.491Z,98064.05
2018-07-17T16:05:18.501Z,98066.95
2018-07-17T16:07:47.512Z,98063.63
2018-07-17T16:10:16.475Z,98066.18
2018-07-17T16:12:45.544Z,98067.69
2018-07-17T16:15:14.615Z,98069.70
2018-07-17T16:17:43.670Z,98075.07
2018-07-17T16:20:12.996Z,98069.91
2018-07-17T16:22:42.197Z,98064.56
2018-07-17T16:25:11.500Z,98060.65
2018-07-17T16:27:40.596Z,98054.35
2018-07-17T16:30:10.053Z,98058.69
2018-07-17T16:32:39.452Z,98063.89
2018-07-17T16:35:08.542Z,98061.47
2018-07-17T16:37:37.617Z,98057.25
2018-07-17T16:40:07.060Z,98063.98
2018-07-17T16:42:36.395Z,98057.59
2018-07-17T16:45:05.608Z,98060.96
2018-07-17T16:47:34.945Z,98065.79
2018-07-17T16:50:04.604Z,98069.30
2018-07-17T16:52:34.050Z,98070.05
2018-07-17T16:55:03.401Z,98070.72
2018-07-17T16:57:32.516Z,98072.83
2018-07-17T17:00:01.613Z,98072.08
2018-07-17T17:02:30.644Z,98076.33
2018-07-17T17:04:59.671Z,98078.95
2018-07-17T17:07:28.663Z,98078.75
2018-07-17T17:09:57.699Z,98080.75
2018-07-17T17:12:26.725Z,98070.38
2018-07-17T17:14:55.694Z,98070.01
2018-07-17T17:17:25.061Z,98020.80
2018-07-17T17:19:54.636Z,98074.48
2018-07-17T17:22:23.752Z,98083.35
2018-07-17T17:24:53.061Z,98075.53
2018-07-17T17:27:22.191Z,98085.27
2018-07-17T17:29:51.220Z,98087.00
2018-07-17T17:32:20.207Z,98088.17
2018-07-17T17:34:49.256Z,98095.11
2018-07-17T17:37:18.297Z,98094.99
2018-07-17T17:39:47.329Z,98103.98
2018-07-17T17:42:16.303Z,98097.41
2018-07-17T17:44:45.489Z,98096.47
2018-07-17T17:47:14.460Z,98097.16
2018-07-17T17:49:43.515Z,98098.18
2018-07-17T17:52:12.564Z,98102.73
2018-07-17T17:54:41.814Z,98100.32
2018-07-17T17:57:10.828Z,98091.52
2018-07-17T17:59:39.892Z,98097.39
2018-07-17T18:02:09.162Z,98099.97
2018-07-17T18:04:38.212Z,98109.38
2018-07-17T18:07:07.392Z,98107.58
2018-07-17T18:09:36.407Z,98106.48
2018-07-17T18:12:05.504Z,98043.88
2018-07-17T18:14:34.560Z,98104.92
2018-07-17T18:17:03.874Z,98107.92
2018-07-17T18:19:32.950Z,98104.64
2018-07-17T18:22:09.035Z,98109.94
2018-07-17T18:24:38.139Z,98109.76
2018-07-17T18:27:07.256Z,98114.47
2018-07-17T18:29:36.317Z,98121.40
2018-07-17T18:32:05.377Z,98128.02
2018-07-17T18:34:34.408Z,98120.09
2018-07-17T18:37:03.411Z,98135.84
2018-07-17T18:39:32.379Z,98126.34
2018-07-17T18:42:01.414Z,98136.98
2018-07-17T18:44:30.413Z,98139.53
2018-07-17T18:46:59.446Z,98142.38
2018-07-17T18:49:28.448Z,98137.27
2018-07-17T18:51:57.588Z,98138.30
2018-07-17T18:54:26.647Z,98137.67
2018-07-17T18:56:55.669Z,98141.86
2018-07-17T18:59:24.724Z,98146.21
2018-07-17T19:01:53.718Z,98139.18
2018-07-17T19:04:22.704Z,98141.23
2018-07-17T19:06:51.837Z,98143.64
2018-07-17T19:09:20.807Z,98141.09
2018-07-17T19:11:49.817Z,98145.56
2018-07-17T19:14:18.776Z,98143.20
2018-07-17T19:16:47.887Z,98145.17
2018-07-17T19:19:16.875Z,98143.00
2018-07-17T19:21:45.900Z,98137.62
2018-07-17T19:24:14.888Z,98143.25
2018-07-17T19:26:43.867Z,98148.69
2018-07-17T19:29:13.063Z,98138.92
2018-07-17T19:31:42.020Z,98142.16
2018-07-17T19:34:11.085Z,98151.41
2018-07-17T19:36:40.060Z,98146.91
2018-07-17T19:39:10.943Z,98150.31
2018-07-17T19:41:39.996Z,98158.53
2018-07-17T19:44:08.978Z,98151.05
2018-07-17T19:46:37.980Z,98153.39
2018-07-17T19:49:07.019Z,98159.23
2018-07-17T19:51:36.144Z,98153.16
2018-07-17T19:54:05.292Z,98154.98
2018-07-17T19:56:34.439Z,98150.66
2018-07-17T19:59:03.494Z,98145.36
2018-07-17T20:01:32.533Z,98149.55
2018-07-17T20:04:01.526Z,98148.99
2018-07-17T20:06:30.580Z,98144.72
2018-07-17T20:08:59.714Z,98153.75
2018-07-17T20:11:28.700Z,98159.57
2018-07-17T20:13:57.667Z,98156.02
2018-07-17T20:16:26.787Z,98155.61
2018-07-17T20:18:55.825Z,98155.38
2018-07-17T20:21:24.958Z,98162.00
2018-07-17T20:23:53.990Z,98159.20
2018-07-17T20:26:23.032Z,98161.48
2018-07-17T20:28:52.008Z,98161.33
2018-07-17T20:31:21.100Z,98162.06
2018-07-17T20:33:50.155Z,98163.55
2018-07-17T20:36:19.114Z,98159.28
2018-07-17T20:38:48.189Z,98159.28
2018-07-17T20:41:17.180Z,98160.17
2018-07-17T20:43:46.176Z,98160.14
2018-07-17T20:46:15.182Z,98159.98
2018-07-17T20:48:44.211Z,98161.38
2018-07-17T20:51:13.225Z,98158.23
2018-07-17T20:53:42.223Z,98162.13
2018-07-17T20:56:11.272Z,98159.77
2018-07-17T20:58:40.345Z,98157.78
2018-07-17T21:01:09.674Z,98161.31
2018-07-17T21:03:38.692Z,98163.85
2018-07-17T21:06:07.967Z,98156.87
2018-07-17T21:08:36.960Z,98156.27
2018-07-17T21:11:06.099Z,98163.85
2018-07-17T21:13:35.257Z,98164.45
2018-07-17T21:16:04.355Z,98164.45
2018-07-17T21:18:33.361Z,98160.20
2018-07-17T21:21:02.427Z,98159.92
2018-07-17T21:23:31.436Z,98156.87
2018-07-17T21:26:00.493Z,98151.73
2018-07-17T21:28:29.463Z,98157.37
2018-07-17T21:30:58.580Z,98161.11
2018-07-17T21:33:27.552Z,98161.50
2018-07-17T21:35:56.542Z,98159.45
2018-07-17T21:38:25.540Z,98158.05
2018-07-17T21:40:54.512Z,98156.87
2018-07-17T21:43:23.555Z,98163.77
2018-07-17T21:45:52.572Z,98163.52
2018-07-17T21:48:21.608Z,98156.47
2018-07-17T21:50:50.576Z,98154.55
2018-07-17T21:53:19.596Z,98154.83
2018-07-17T21:55:48.649Z,98155.27
2018-07-17T21:58:17.713Z,98152.50
2018-07-17T22:00:46.726Z,98162.91
2018-07-17T22:03:15.693Z,98156.30
2018-07-17T22:05:44.872Z,98153.88
2018-07-17T22:08:13.916Z,98156.87
2018-07-17T22:10:42.936Z,98155.48
2018-07-17T22:13:11.916Z,98150.85
2018-07-17T22:15:40.953Z,98144.25
2018-07-17T22:18:09.932Z,98148.55
2018-07-17T22:20:39.298Z,98148.25
2018-07-17T22:23:09.750Z,98141.70
2018-07-17T22:25:44.688Z,98147.42
2018-07-17T22:28:15.330Z,98141.25
2018-07-17T22:30:45.703Z,98144.33
2018-07-17T22:33:17.329Z,98139.16
2018-07-17T22:35:47.621Z,98146.59
2018-07-17T22:38:17.825Z,98142.42
2018-07-17T22:40:48.721Z,98142.42
2018-07-17T22:43:18.629Z,98148.84
2018-07-17T22:45:48.408Z,98145.16
2018-07-17T22:48:19.432Z,98149.02
2018-07-17T22:50:48.905Z,98142.84
2018-07-17T22:53:20.404Z,98143.67
2018-07-17T22:55:51.305Z,98144.39
2018-07-17T22:58:22.900Z,98146.71
2018-07-17T23:00:51.896Z,98141.36
2018-07-17T23:03:22.991Z,98140.86
2018-07-17T23:05:52.825Z,98140.33
2018-07-17T23:08:23.839Z,98137.33
2018-07-17T23:10:54.981Z,98135.91
2018-07-17T23:13:25.408Z,98137.77
2018-07-17T23:15:55.606Z,98138.33
2018-07-17T23:18:25.350Z,98135.19
2018-07-17T23:20:55.176Z,98138.80
2018-07-17T23:23:29.088Z,98140.41
2018-07-17T23:26:03.394Z,98142.73
2018-07-17T23:28:36.180Z,98146.59
2018-07-17T23:31:09.404Z,98146.81
2018-07-17T23:33:38.364Z,98155.72
2018-07-17T23:36:07.597Z,98154.30
2018-07-17T23:38:36.588Z,98155.22
2018-07-17T23:41:05.584Z,98147.58
2018-07-17T23:43:34.641Z,98152.64
2018-07-17T23:46:03.608Z,98152.86
2018-07-17T23:48:32.676Z,98157.36
2018-07-17T23:51:01.665Z,98162.20
2018-07-17T23:53:30.632Z,98159.67
2018-07-17T23:55:59.620Z,98161.59
2018-07-17T23:58:28.697Z,98166.17
